Time;durP1;ratioP1;P1;durP2;ratioP2;P2;SDS_P1;SDS_P2;PMS_P1;PMS_P2;Temp;Humidity;BMP_temperature;BMP_pressure;BME280_temperature;BME280_humidity;BME280_pressure;Samples;Min_cycle;Max_cycle;Signal;HPM_P1;HPM_P2
2023/06/18 00:01:47;;;;;;;12.80;11.50;;;;;;;15.48;100.00;99339.19;5053203;28;20044;-83
2023/06/18 00:04:12;;;;;;;12.07;10.85;;;;;;;15.43;99.75;99336.91;5030560;28;20485;-83
2023/06/18 00:06:37;;;;;;;12.95;10.80;;;;;;;15.47;99.12;99340.16;5030830;28;20493;-83
2023/06/18 00:09:03;;;;;;;13.60;11.45;;;;;;;15.37;100.00;99328.63;5030532;28;20116;-83
2023/06/18 00:11:28;;;;;;;12.45;11.15;;;;;;;15.53;99.92;99352.81;5030766;28;20120;-83
2023/06/18 00:13:53;;;;;;;11.98;10.25;;;;;;;15.39;99.52;99342.47;5030744;28;20124;-83
2023/06/18 00:16:19;;;;;;;13.52;12.13;;;;;;;15.47;99.57;99361.16;5030494;28;20025;-83
2023/06/18 00:18:44;;;;;;;12.02;10.75;;;;;;;15.41;100.00;99364.19;5030357;28;20049;-83
2023/06/18 00:21:11;;;;;;;12.90;11.60;;;;;;;15.23;100.00;99340.94;5030706;28;20065;-82
2023/06/18 00:23:37;;;;;;;12.88;11.43;;;;;;;15.32;100.00;99356.97;5030449;28;20049;-83
2023/06/18 00:26:02;;;;;;;12.05;10.82;;;;;;;15.30;100.00;99354.47;5030322;28;20033;-83
2023/06/18 00:28:28;;;;;;;12.10;10.88;;;;;;;15.07;100.00;99331.63;5013749;28;20424;-83
2023/06/18 00:30:54;;;;;;;12.95;11.48;;;;;;;15.20;100.00;99351.63;5030060;28;20470;-83
2023/06/18 00:33:20;;;;;;;13.35;10.75;;;;;;;15.23;100.00;99356.69;5030351;28;20045;-83
2023/06/18 00:35:46;;;;;;;12.52;11.23;;;;;;;15.09;100.00;99340.25;5046167;28;20511;-83
2023/06/18 00:38:11;;;;;;;11.07;10.07;;;;;;;15.00;100.00;99323.38;5052704;28;20057;-83
2023/06/18 00:40:36;;;;;;;11.48;10.20;;;;;;;15.15;99.62;99360.78;5052905;28;20147;-83
2023/06/18 00:43:03;;;;;;;11.80;10.57;;;;;;;15.05;99.60;99341.41;5052482;28;20029;-83
2023/06/18 00:45:29;;;;;;;10.57;9.48;;;;;;;15.12;99.37;99366.25;5052494;28;20057;-83
2023/06/18 00:47:55;;;;;;;12.85;10.25;;;;;;;14.94;99.73;99339.50;5052215;28;20068;-83
2023/06/18 00:50:21;;;;;;;11.77;10.57;;;;;;;15.06;100.00;99370.13;5052622;28;20032;-83
2023/06/18 00:52:49;;;;;;;11.75;10.55;;;;;;;14.90;100.00;99340.66;5052517;28;20078;-82
2023/06/18 00:55:18;;;;;;;12.38;11.07;;;;;;;15.02;100.00;99362.59;5051179;28;20040;-83
2023/06/18 00:57:49;;;;;;;12.25;11.05;;;;;;;14.90;100.00;99345.91;5052072;28;20017;-83
2023/06/18 01:00:16;;;;;;;12.48;11.18;;;;;;;15.07;100.00;99368.34;5052220;28;20116;-83
2023/06/18 01:02:45;;;;;;;12.00;10.80;;;;;;;15.06;100.00;99372.75;5052034;28;20036;-82
2023/06/18 01:05:13;;;;;;;11.93;10.68;;;;;;;14.85;100.00;99343.63;5052265;28;20036;-82
2023/06/18 01:07:40;;;;;;;12.80;11.48;;;;;;;14.92;100.00;99365.03;5052373;28;20108;-82
2023/06/18 01:10:07;;;;;;;13.98;10.15;;;;;;;14.80;100.00;99337.84;5050594;28;19917;-82
2023/06/18 01:12:33;;;;;;;11.48;10.27;;;;;;;14.91;100.00;99360.69;5052000;28;20025;-83
2023/06/18 01:15:00;;;;;;;11.23;10.07;;;;;;;14.71;100.00;99333.25;5051822;28;20115;-82
2023/06/18 01:17:33;;;;;;;13.27;11.77;;;;;;;14.83;100.00;99355.13;5052008;28;20389;-82
2023/06/18 01:20:10;;;;;;;12.63;10.27;;;;;;;14.87;100.00;99364.47;5051826;28;20063;-82
2023/06/18 01:22:42;;;;;;;12.20;10.95;;;;;;;14.84;100.00;99373.41;5052127;28;20025;-82
2023/06/18 01:25:08;;;;;;;11.85;10.60;;;;;;;14.75;100.00;99352.19;5051756;28;20037;-82
2023/06/18 01:27:40;;;;;;;11.25;10.15;;;;;;;14.75;100.00;99349.56;5052212;28;20031;-82
2023/06/18 01:30:08;;;;;;;12.23;10.98;;;;;;;14.69;100.00;99356.94;5051767;28;20033;-82
2023/06/18 01:32:36;;;;;;;12.25;10.95;;;;;;;14.69;100.00;99354.31;5051976;28;20078;-82
2023/06/18 01:35:02;;;;;;;12.25;11.02;;;;;;;14.56;100.00;99344.78;5051479;28;20127;-82
2023/06/18 01:37:35;;;;;;;12.00;10.90;;;;;;;14.72;100.00;99369.84;5051803;28;20024;-82
2023/06/18 01:40:29;;;;;;;12.15;10.88;;;;;;;14.46;100.00;99336.66;5051362;28;20119;-82
2023/06/18 01:43:11;;;;;;;11.93;10.45;;;;;;;14.61;100.00;99361.00;5050462;28;20029;-82
2023/06/18 01:45:46;;;;;;;12.20;11.00;;;;;;;14.48;100.00;99338.25;5051711;28;20419;-82
2023/06/18 01:48:13;;;;;;;13.13;11.48;;;;;;;14.61;100.00;99361.84;5051488;28;20025;-82
2023/06/18 01:50:42;;;;;;;12.13;10.18;;;;;;;14.53;100.00;99351.03;5050296;28;20034;-82
2023/06/18 01:53:13;;;;;;;12.52;11.23;;;;;;;14.41;100.00;99336.13;5051385;28;20551;-82
2023/06/18 01:55:41;;;;;;;12.75;11.45;;;;;;;14.39;100.00;99327.53;5051748;28;20059;-82
2023/06/18 01:58:07;;;;;;;13.27;11.93;;;;;;;14.59;100.00;99366.38;5051360;28;20028;-82
2023/06/18 02:00:32;;;;;;;13.85;11.63;;;;;;;14.36;100.00;99335.59;5051830;28;20056;-82
2023/06/18 02:02:58;;;;;;;12.75;11.32;;;;;;;14.57;100.00;99363.00;5051111;28;20021;-82
2023/06/18 02:05:24;;;;;;;13.90;11.88;;;;;;;14.31;100.00;99335.91;5051707;28;20029;-82
2023/06/18 02:07:49;;;;;;;11.90;10.68;;;;;;;14.46;100.00;99361.09;5051450;28;20032;-83
2023/06/18 02:10:15;;;;;;;12.98;11.68;;;;;;;14.44;100.00;99364.75;5050402;28;20032;-82
2023/06/18 02:12:40;;;;;;;12.52;11.32;;;;;;;14.35;100.00;99355.72;5051699;28;20031;-82
2023/06/18 02:15:06;;;;;;;12.50;11.20;;;;;;;14.32;100.00;99363.78;5055060;28;20554;-82
2023/06/18 02:17:31;;;;;;;13.20;11.70;;;;;;;14.32;100.00;99373.41;5055117;28;20480;-82
2023/06/18 02:19:57;;;;;;;12.10;10.90;;;;;;;14.27;100.00;99365.88;5055131;28;20380;-82
2023/06/18 02:22:24;;;;;;;12.52;11.18;;;;;;;14.07;100.00;99356.69;5053992;28;20025;-82
2023/06/18 02:24:49;;;;;;;12.60;11.32;;;;;;;14.03;100.00;99357.88;5054932;28;20025;-82
2023/06/18 02:27:14;;;;;;;10.90;9.80;;;;;;;13.99;100.00;99356.38;5055162;28;20381;-82
2023/06/18 02:29:41;;;;;;;13.73;11.07;;;;;;;13.89;100.00;99345.66;5054928;28;20454;-82
2023/06/18 02:32:07;;;;;;;12.93;11.35;;;;;;;14.00;100.00;99368.53;5054997;28;20041;-82
2023/06/18 02:34:34;;;;;;;12.48;11.23;;;;;;;14.12;100.00;99393.09;5054958;28;20056;-82
2023/06/18 02:37:00;;;;;;;12.30;11.10;;;;;;;13.97;100.00;99368.72;5053572;28;20115;-82
2023/06/18 02:39:25;;;;;;;12.75;11.50;;;;;;;14.06;100.00;99389.06;5055060;28;20028;-82
2023/06/18 02:41:50;;;;;;;12.77;11.23;;;;;;;13.90;100.00;99359.56;5053439;28;20021;-82
2023/06/18 02:44:17;;;;;;;12.20;10.82;;;;;;;14.00;100.00;99392.09;5054780;28;20057;-82
2023/06/18 02:46:42;;;;;;;11.95;10.55;;;;;;;13.97;100.00;99392.28;5053381;28;20021;-82
2023/06/18 02:49:07;;;;;;;12.43;11.18;;;;;;;13.80;100.00;99369.81;5054638;28;20025;-82
2023/06/18 02:51:33;;;;;;;15.43;11.15;;;;;;;13.71;100.00;99358.16;5054789;28;20029;-82
2023/06/18 02:53:59;;;;;;;12.98;11.55;;;;;;;13.66;100.00;99360.22;5054419;28;20025;-82
2023/06/18 02:56:28;;;;;;;11.00;9.95;;;;;;;13.84;100.00;99394.84;5054326;28;20522;-82
2023/06/18 02:58:56;;;;;;;12.38;10.88;;;;;;;13.95;100.00;99417.75;5052917;28;20029;-82
2023/06/18 03:01:23;;;;;;;12.07;10.73;;;;;;;13.81;100.00;99410.75;5054452;28;20028;-82
2023/06/18 03:03:49;;;;;;;12.43;9.98;;;;;;;13.77;100.00;99384.88;5054361;28;20423;-82
2023/06/18 03:06:15;;;;;;;13.55;10.95;;;;;;;13.72;100.00;99386.00;5054487;28;20025;-82
2023/06/18 03:08:40;;;;;;;13.85;11.30;;;;;;;13.86;100.00;99405.22;5054279;28;20033;-82
2023/06/18 03:11:05;;;;;;;12.18;10.90;;;;;;;13.94;100.00;99419.50;5052806;28;20392;-82
2023/06/18 03:13:30;;;;;;;12.05;10.65;;;;;;;13.89;100.00;99405.88;5054184;28;20031;-82
2023/06/18 03:15:56;;;;;;;12.95;10.70;;;;;;;13.85;100.00;99396.53;5054017;28;20033;-82
2023/06/18 03:18:21;;;;;;;11.82;10.02;;;;;;;13.77;100.00;99377.00;5054176;28;20116;-82
2023/06/18 03:20:46;;;;;;;12.18;10.98;;;;;;;13.94;100.00;99409.03;5054197;28;20116;-82
2023/06/18 03:23:12;;;;;;;13.50;11.25;;;;;;;13.78;100.00;99386.53;5053789;28;20025;-82
2023/06/18 03:25:37;;;;;;;12.32;11.07;;;;;;;13.90;100.00;99417.16;5053718;28;20084;-82
2023/06/18 03:28:02;;;;;;;13.27;10.93;;;;;;;13.90;100.00;99411.94;5053517;28;20029;-82
2023/06/18 03:30:28;;;;;;;12.25;11.05;;;;;;;13.92;100.00;99416.16;5053944;28;20029;-82
2023/06/18 03:32:56;;;;;;;13.20;11.80;;;;;;;13.97;100.00;99421.09;5053613;28;20021;-82
2023/06/18 03:35:21;;;;;;;12.52;11.27;;;;;;;13.76;100.00;99398.91;5052397;28;20040;-82
2023/06/18 03:37:47;;;;;;;11.82;10.63;;;;;;;13.86;100.00;99410.44;5053789;28;20047;-82
2023/06/18 03:40:13;;;;;;;12.30;11.10;;;;;;;13.82;100.00;99407.22;5053480;28;20075;-82
2023/06/18 03:42:38;;;;;;;13.60;11.35;;;;;;;13.87;100.00;99422.63;5053627;28;20048;-82
2023/06/18 03:45:04;;;;;;;12.82;11.30;;;;;;;13.91;100.00;99417.09;5053391;28;20377;-82
2023/06/18 03:47:30;;;;;;;12.90;11.55;;;;;;;13.92;100.00;99423.16;5052119;28;20029;-82
2023/06/18 03:49:55;;;;;;;13.45;11.57;;;;;;;13.86;100.00;99399.97;5052136;28;20040;-82
2023/06/18 03:52:20;;;;;;;12.82;11.43;;;;;;;14.05;100.00;99424.06;5053660;28;20361;-82
2023/06/18 03:54:46;;;;;;;13.13;11.27;;;;;;;14.21;100.00;99440.47;5053621;28;20025;-82
2023/06/18 03:57:12;;;;;;;13.95;12.50;;;;;;;14.05;100.00;99405.72;5051992;28;20025;-82
2023/06/18 03:59:37;;;;;;;13.82;12.43;;;;;;;14.18;100.00;99411.00;5053648;28;20115;-82
2023/06/18 04:02:03;;;;;;;13.48;12.13;;;;;;;14.29;100.00;99421.63;5053289;28;20451;-82
2023/06/18 04:04:28;;;;;;;13.45;12.05;;;;;;;14.39;100.00;99420.06;5053372;28;20021;-82
2023/06/18 04:06:54;;;;;;;14.55;13.10;;;;;;;14.63;100.00;99430.75;5053095;28;20064;-82
2023/06/18 04:09:19;;;;;;;14.05;12.65;;;;;;;14.84;100.00;99438.97;5053124;28;20388;-82
2023/06/18 04:11:45;;;;;;;15.25;13.48;;;;;;;14.93;100.00;99421.75;5053147;28;20032;-82
2023/06/18 04:14:11;;;;;;;15.25;13.85;;;;;;;15.19;100.00;99428.66;5053056;28;20375;-82
2023/06/18 04:16:37;;;;;;;14.45;12.27;;;;;;;15.38;100.00;99406.38;5051858;28;20116;-82
2023/06/18 04:19:02;;;;;;;14.93;13.45;;;;;;;15.82;100.00;99428.69;5052979;28;20365;-82
2023/06/18 04:21:28;;;;;;;14.85;12.88;;;;;;;16.00;100.00;99393.19;5052993;28;20025;-82
2023/06/18 04:23:54;;;;;;;12.80;11.50;;;;;;;16.61;98.35;99424.63;5052766;28;20040;-82
2023/06/18 04:26:19;;;;;;;13.32;11.85;;;;;;;17.00;95.87;99412.06;5051440;28;20028;-82
2023/06/18 04:28:45;;;;;;;14.38;12.98;;;;;;;17.48;93.42;99430.25;5052709;28;20067;-82
2023/06/18 04:31:10;;;;;;;13.90;12.50;;;;;;;18.04;90.97;99443.38;5052750;28;20488;-83
2023/06/18 04:33:36;;;;;;;14.48;13.05;;;;;;;18.24;88.75;99420.66;5052493;28;20035;-82
2023/06/18 04:36:01;;;;;;;14.55;13.15;;;;;;;18.43;87.87;99429.56;5050673;28;20033;-82
2023/06/18 04:38:27;;;;;;;13.45;12.05;;;;;;;18.56;87.23;99433.84;5052796;28;20029;-82
2023/06/18 04:40:52;;;;;;;12.90;11.70;;;;;;;18.68;86.88;99440.72;5052500;28;20025;-82
2023/06/18 04:43:18;;;;;;;13.15;11.93;;;;;;;18.81;86.24;99444.03;5052218;28;20029;-82
2023/06/18 04:45:47;;;;;;;14.05;12.73;;;;;;;19.09;85.27;99447.81;5052687;28;20052;-82
2023/06/18 04:48:14;;;;;;;15.88;12.50;;;;;;;19.53;83.18;99442.31;5052252;28;20029;-83
2023/06/18 04:50:40;;;;;;;12.50;11.20;;;;;;;19.99;81.34;99444.44;5052450;28;20017;-83
2023/06/18 04:53:05;;;;;;;13.15;11.85;;;;;;;20.27;79.43;99447.22;5052140;28;20048;-82
2023/06/18 04:55:30;;;;;;;14.18;12.68;;;;;;;20.48;78.38;99429.47;5052342;28;20029;-83
2023/06/18 04:57:56;;;;;;;13.25;11.95;;;;;;;20.62;78.32;99441.44;5052054;28;20033;-83
2023/06/18 05:00:22;;;;;;;13.45;12.25;;;;;;;20.59;78.46;99447.00;5052382;28;20031;-83
2023/06/18 05:02:47;;;;;;;13.43;12.20;;;;;;;20.67;78.77;99458.53;5050948;28;20063;-83
2023/06/18 05:05:13;;;;;;;13.30;12.07;;;;;;;20.46;78.67;99418.16;5052032;28;20098;-83
2023/06/18 05:07:38;;;;;;;14.15;12.82;;;;;;;20.91;78.24;99439.56;5050908;28;20025;-83
2023/06/18 05:10:04;;;;;;;12.45;11.25;;;;;;;21.10;77.30;99427.25;5051933;28;20512;-83
2023/06/18 05:12:30;;;;;;;12.90;11.50;;;;;;;21.63;75.43;99435.44;5050815;28;20048;-83
2023/06/18 05:14:55;;;;;;;11.45;10.45;;;;;;;22.68;72.69;99449.94;5052053;28;20480;-83
2023/06/18 05:17:20;;;;;;;12.32;11.25;;;;;;;23.25;69.86;99414.97;5052201;28;20025;-83
2023/06/18 05:19:46;;;;;;;12.27;11.13;;;;;;;23.82;68.21;99449.81;5052026;28;20025;-83
2023/06/18 05:22:11;;;;;;;13.13;11.93;;;;;;;23.55;68.29;99433.06;5052007;28;20083;-83
2023/06/18 05:24:37;;;;;;;11.90;10.80;;;;;;;23.29;69.68;99448.22;5050697;28;20087;-83
2023/06/18 05:27:02;;;;;;;11.63;10.55;;;;;;;23.12;70.62;99452.59;5051601;28;20036;-83
2023/06/18 05:29:27;;;;;;;12.13;10.93;;;;;;;22.97;70.93;99438.25;5051935;28;20104;-83
2023/06/18 05:31:53;;;;;;;12.43;11.20;;;;;;;23.20;70.06;99436.72;5052306;28;20420;-84
2023/06/18 05:34:18;;;;;;;13.48;12.10;;;;;;;23.54;69.03;99438.53;5051721;28;20522;-83
2023/06/18 05:36:43;;;;;;;11.60;10.50;;;;;;;24.45;67.59;99459.97;5051907;28;20469;-84
2023/06/18 05:39:10;;;;;;;12.32;11.23;;;;;;;25.48;64.25;99416.69;5051599;28;20104;-84
2023/06/18 05:41:35;;;;;;;13.27;11.98;;;;;;;26.08;62.15;99446.28;5050511;28;20051;-84
2023/06/18 05:44:01;;;;;;;11.60;10.50;;;;;;;25.75;62.75;99450.94;5051671;28;20028;-84
2023/06/18 05:46:26;;;;;;;11.95;10.93;;;;;;;25.35;63.46;99435.91;5051843;28;20103;-84
2023/06/18 05:48:52;;;;;;;11.45;10.45;;;;;;;24.97;64.64;99421.47;5055877;28;20033;-84
2023/06/18 05:51:17;;;;;;;11.43;10.43;;;;;;;25.08;64.82;99453.09;5055520;28;20041;-84
2023/06/18 05:53:42;;;;;;;11.50;10.40;;;;;;;25.07;65.14;99470.94;5055642;28;20029;-84
2023/06/18 05:56:08;;;;;;;11.32;10.23;;;;;;;24.93;64.83;99476.94;5055339;28;20052;-83
2023/06/18 05:58:33;;;;;;;10.55;9.57;;;;;;;24.64;65.34;99488.91;5055778;28;20029;-83
2023/06/18 06:00:58;;;;;;;11.50;10.35;;;;;;;24.36;66.27;99480.38;5055473;28;20021;-83
2023/06/18 06:03:25;;;;;;;11.40;10.40;;;;;;;24.33;66.96;99486.03;5055622;28;20485;-83
2023/06/18 06:05:50;;;;;;;10.02;9.13;;;;;;;24.45;66.14;99469.78;5055572;28;20036;-83
2023/06/18 06:08:16;;;;;;;10.40;9.50;;;;;;;24.70;65.40;99468.78;5055226;28;20029;-83
2023/06/18 06:10:41;;;;;;;10.85;9.77;;;;;;;24.98;65.30;99466.59;5055603;28;20063;-83
2023/06/18 06:13:07;;;;;;;10.02;9.13;;;;;;;25.34;64.26;99484.91;5055460;28;20024;-83
2023/06/18 06:15:32;;;;;;;10.07;9.23;;;;;;;25.86;63.67;99500.41;5055575;28;20021;-84
2023/06/18 06:17:57;;;;;;;10.05;9.15;;;;;;;26.25;62.49;99483.53;5055427;28;20036;-83
2023/06/18 06:20:23;;;;;;;9.23;8.48;;;;;;;26.57;61.38;99477.16;5053618;28;20035;-84
2023/06/18 06:22:49;;;;;;;9.88;9.07;;;;;;;27.09;60.42;99479.94;5055309;28;20033;-83
2023/06/18 06:25:15;;;;;;;9.45;8.50;;;;;;;27.82;59.35;99498.88;5054926;28;20100;-83
2023/06/18 06:27:42;;;;;;;8.90;8.10;;;;;;;28.74;57.40;99503.63;5054038;28;20032;-84
2023/06/18 06:30:09;;;;;;;7.68;6.97;;;;;;;30.22;53.18;99483.72;5053619;28;20063;-83
2023/06/18 06:32:35;;;;;;;7.50;6.90;;;;;;;32.07;50.21;99495.38;5055160;28;20032;-84
2023/06/18 06:35:03;;;;;;;6.78;6.28;;;;;;;33.43;47.62;99479.44;5054633;28;20049;-83
2023/06/18 06:37:29;;;;;;;7.35;6.75;;;;;;;34.71;44.97;99499.22;5054920;28;20029;-84
2023/06/18 06:39:55;;;;;;;6.28;5.85;;;;;;;35.37;44.12;99479.16;5054628;28;20071;-84
2023/06/18 06:42:21;;;;;;;6.53;6.03;;;;;;;36.43;42.47;99493.25;5054736;28;20384;-84
2023/06/18 06:44:47;;;;;;;6.05;5.55;;;;;;;37.81;41.18;99500.00;5054692;28;20035;-84
2023/06/18 06:47:12;;;;;;;5.95;5.50;;;;;;;39.09;39.00;99502.91;5054717;28;20021;-84
2023/06/18 06:49:37;;;;;;;6.32;5.82;;;;;;;40.01;37.74;99494.41;5054629;28;20031;-84
2023/06/18 06:52:03;;;;;;;6.53;6.03;;;;;;;40.67;36.83;99474.59;5054306;28;20021;-84
2023/06/18 06:54:28;;;;;;;5.93;5.53;;;;;;;41.31;36.11;99496.66;5053218;28;20105;-84
2023/06/18 06:56:54;;;;;;;6.65;6.15;;;;;;;41.67;35.69;99482.88;5054725;28;20040;-84
2023/06/18 06:59:19;;;;;;;6.18;5.78;;;;;;;42.23;35.43;99496.31;5053727;28;20086;-84
2023/06/18 07:01:45;;;;;;;6.47;6.00;;;;;;;42.64;34.97;99479.59;5054254;28;20053;-84
2023/06/18 07:04:10;;;;;;;5.95;5.43;;;;;;;42.88;34.29;99470.63;5054213;28;20033;-86
2023/06/18 07:06:39;;;;;;;7.13;6.40;;;;;;;43.19;34.12;99493.06;5054744;28;20072;-83
2023/06/18 07:09:06;;;;;;;6.70;6.20;;;;;;;42.97;34.33;99477.91;5054121;28;20025;-83
2023/06/18 07:11:33;;;;;;;7.07;6.15;;;;;;;43.47;34.22;99483.19;5054677;28;20044;-83
2023/06/18 07:13:58;;;;;;;6.70;6.20;;;;;;;43.68;33.63;99481.00;5054488;28;20029;-83
2023/06/18 07:16:24;;;;;;;7.15;6.65;;;;;;;44.03;33.70;99466.78;5053980;28;20025;-83
2023/06/18 07:18:49;;;;;;;7.40;6.85;;;;;;;44.16;33.58;99494.59;5054029;28;20126;-83
2023/06/18 07:21:15;;;;;;;6.93;6.43;;;;;;;44.27;33.14;99482.41;5054134;28;20108;-83
2023/06/18 07:23:40;;;;;;;6.88;6.38;;;;;;;44.17;33.00;99471.56;5053964;28;20150;-83
2023/06/18 07:26:05;;;;;;;7.35;6.85;;;;;;;42.82;33.89;99487.09;5054205;28;20021;-83
2023/06/18 07:28:31;;;;;;;6.97;6.38;;;;;;;42.57;34.95;99465.41;5054002;28;20053;-83
2023/06/18 07:30:56;;;;;;;6.30;5.90;;;;;;;43.00;33.96;99476.53;5054178;28;20028;-82
2023/06/18 07:33:21;;;;;;;6.70;6.30;;;;;;;43.53;33.17;99484.72;5053506;28;20078;-83
2023/06/18 07:35:47;;;;;;;6.45;6.05;;;;;;;43.19;33.50;99465.66;5054265;28;20086;-83
2023/06/18 07:38:12;;;;;;;5.97;5.55;;;;;;;42.83;33.23;99469.56;5053826;28;20029;-83
2023/06/18 07:40:38;;;;;;;6.10;5.70;;;;;;;42.46;33.92;99463.84;5054302;28;20372;-83
2023/06/18 07:43:04;;;;;;;6.05;5.63;;;;;;;41.87;34.02;99477.34;5054174;28;20024;-82
2023/06/18 07:45:29;;;;;;;5.60;5.20;;;;;;;42.25;34.11;99474.13;5054050;28;20350;-82
2023/06/18 07:47:54;;;;;;;6.15;5.75;;;;;;;42.41;33.90;99481.13;5053941;28;20656;-82
2023/06/18 07:50:20;;;;;;;5.25;4.95;;;;;;;41.58;34.43;99485.38;5053632;28;20032;-82
2023/06/18 07:52:45;;;;;;;6.07;5.63;;;;;;;41.57;34.19;99486.47;5053637;28;20028;-83
2023/06/18 07:55:10;;;;;;;5.28;4.97;;;;;;;42.11;33.94;99460.25;5053541;28;20028;-84
2023/06/18 07:57:37;;;;;;;5.68;5.28;;;;;;;42.66;32.49;99473.84;5052164;28;20086;-83
2023/06/18 08:00:02;;;;;;;5.47;5.07;;;;;;;42.88;33.26;99484.31;5052620;28;20029;-84
2023/06/18 08:02:28;;;;;;;5.60;5.18;;;;;;;42.78;32.73;99490.72;5053174;28;20524;-84
2023/06/18 08:04:53;;;;;;;5.57;5.20;;;;;;;42.67;33.47;99473.53;5053389;28;20025;-85
2023/06/18 08:07:19;;;;;;;5.00;4.70;;;;;;;42.88;33.14;99495.28;5052981;28;20457;-85
2023/06/18 08:09:44;;;;;;;5.22;4.82;;;;;;;42.74;33.47;99487.72;5053334;28;20057;-84
2023/06/18 08:12:11;;;;;;;5.22;4.90;;;;;;;41.81;33.38;99500.34;5050844;28;20047;-84
2023/06/18 08:14:36;;;;;;;5.00;4.68;;;;;;;40.06;34.46;99478.03;5052002;28;20020;-86
2023/06/18 08:17:02;;;;;;;4.93;4.53;;;;;;;37.94;36.50;99480.59;5053385;28;20024;-85
2023/06/18 08:19:27;;;;;;;5.38;4.97;;;;;;;36.38;37.82;99476.88;5052900;28;20415;-85
2023/06/18 08:21:53;;;;;;;5.57;5.18;;;;;;;35.08;39.06;99478.25;5051712;28;20029;-85
2023/06/18 08:24:18;;;;;;;5.03;4.72;;;;;;;33.90;40.66;99439.22;5053198;28;20029;-87
2023/06/18 08:26:43;;;;;;;5.70;5.30;;;;;;;33.13;41.41;99478.53;5053075;28;20025;-87
2023/06/18 08:29:09;;;;;;;5.20;4.80;;;;;;;32.19;42.45;99466.72;5051495;28;20091;-88
2023/06/18 08:31:34;;;;;;;5.03;4.68;;;;;;;31.91;43.16;99477.88;5052912;28;20129;-85
2023/06/18 08:34:00;;;;;;;5.13;4.72;;;;;;;31.48;43.69;99471.16;5051492;28;20060;-87
2023/06/18 08:36:25;;;;;;;4.85;4.45;;;;;;;31.11;43.36;99453.81;5051578;28;20028;-88
2023/06/18 08:38:50;;;;;;;5.32;4.93;;;;;;;30.84;44.15;99471.81;5052925;28;20067;-81
2023/06/18 08:41:16;;;;;;;5.95;5.45;;;;;;;30.37;45.52;99468.25;5052725;28;20362;-83
2023/06/18 08:43:42;;;;;;;6.03;5.60;;;;;;;29.76;45.56;99463.72;5052708;28;20032;-83
2023/06/18 08:46:15;;;;;;;5.40;4.93;;;;;;;29.43;46.72;99443.91;5052660;28;20025;-85
2023/06/18 08:48:56;;;;;;;4.90;4.50;;;;;;;29.38;47.07;99452.56;5051161;28;20115;-91
2023/06/18 08:51:23;;;;;;;5.40;4.97;;;;;;;29.37;46.79;99458.09;5052402;28;20021;-90
2023/06/18 08:54:18;;;;;;;5.68;5.18;;;;;;;29.15;47.26;99454.66;5052767;28;20033;-88
2023/06/18 08:56:49;;;;;;;5.75;5.22;;;;;;;28.81;47.38;99446.34;5050068;28;20033;-89
2023/06/18 08:59:15;;;;;;;5.40;4.90;;;;;;;28.81;47.95;99475.84;5033173;28;20127;-89
2023/06/18 09:01:45;;;;;;;6.30;5.75;;;;;;;28.82;47.84;99471.28;5033975;28;20128;-93
2023/06/18 09:04:36;;;;;;;5.47;4.93;;;;;;;28.59;47.95;99453.59;5009954;28;20419;-96
2023/06/18 09:07:08;;;;;;;5.32;4.88;;;;;;;28.61;48.48;99472.16;5010291;28;20030;-95
2023/06/18 09:09:35;;;;;;;6.78;5.80;;;;;;;28.56;48.85;99464.69;4993850;28;20041;-91
2023/06/18 09:12:01;;;;;;;6.10;5.60;;;;;;;28.63;48.93;99475.47;4993245;28;20397;-89
2023/06/18 09:14:27;;;;;;;6.20;5.75;;;;;;;28.47;50.17;99456.97;5009798;28;20076;-91
2023/06/18 09:16:57;;;;;;;5.68;5.28;;;;;;;28.29;49.90;99438.66;4993662;28;20462;-89
2023/06/18 09:19:23;;;;;;;5.45;4.93;;;;;;;28.39;50.13;99468.66;5010000;28;20500;-87
2023/06/18 09:21:49;;;;;;;5.80;5.30;;;;;;;28.19;50.39;99449.69;4993103;28;20088;-92
2023/06/18 09:24:22;;;;;;;5.65;5.15;;;;;;;28.13;48.80;99444.25;5009877;28;20477;-88
2023/06/18 09:26:58;;;;;;;5.80;5.28;;;;;;;28.10;49.17;99462.34;5010014;28;20136;-90
2023/06/18 09:29:28;;;;;;;5.15;4.75;;;;;;;28.06;48.85;99466.44;4993189;28;20494;-90
2023/06/18 09:31:54;;;;;;;5.63;5.13;;;;;;;28.14;49.77;99464.66;4993415;28;20073;-86
2023/06/18 09:34:20;;;;;;;5.75;5.25;;;;;;;28.17;49.41;99458.91;5009674;28;20046;-88
2023/06/18 09:36:48;;;;;;;5.85;5.43;;;;;;;28.28;49.25;99453.06;5051947;28;20017;-88
2023/06/18 09:39:25;;;;;;;6.00;5.40;;;;;;;27.95;49.34;99416.06;5050291;28;20079;-90
2023/06/18 09:41:52;;;;;;;5.50;5.10;;;;;;;27.91;49.11;99427.34;5052013;28;20112;-87
2023/06/18 09:44:19;;;;;;;5.97;5.47;;;;;;;27.43;49.83;99449.16;5051593;28;20033;-84
2023/06/18 09:46:47;;;;;;;6.00;5.22;;;;;;;26.94;50.87;99452.31;5050608;28;20025;-89
2023/06/18 09:49:13;;;;;;;5.50;5.10;;;;;;;27.01;50.71;99452.38;5050305;28;20453;-91
2023/06/18 09:51:41;;;;;;;5.50;5.10;;;;;;;27.13;51.30;99450.97;5051622;28;20048;-91
2023/06/18 09:54:07;;;;;;;5.80;5.30;;;;;;;27.40;51.30;99456.72;5051135;28;20029;-85
2023/06/18 09:56:32;;;;;;;5.28;4.80;;;;;;;27.57;49.77;99448.31;5050362;28;20414;-88
2023/06/18 09:58:57;;;;;;;5.45;4.95;;;;;;;27.53;50.36;99435.50;5051629;28;20388;-86
2023/06/18 10:01:25;;;;;;;5.35;4.88;;;;;;;27.60;50.32;99439.06;5035226;28;20026;-85
2023/06/18 10:03:50;;;;;;;5.35;4.95;;;;;;;27.59;50.36;99432.88;5029989;28;20025;-86
2023/06/18 10:06:23;;;;;;;5.70;5.28;;;;;;;27.65;50.58;99438.53;5031498;28;20025;-87
2023/06/18 10:08:50;;;;;;;6.55;5.97;;;;;;;27.55;50.39;99434.25;5048945;28;20743;-86
2023/06/18 10:11:17;;;;;;;6.20;5.57;;;;;;;27.24;50.67;99430.97;5048954;28;20041;-86
2023/06/18 10:13:50;;;;;;;6.40;5.93;;;;;;;26.99;50.39;99430.38;5049124;28;20487;-86
2023/06/18 10:16:18;;;;;;;5.65;5.22;;;;;;;26.60;51.49;99436.75;5048972;28;20041;-87
2023/06/18 10:19:09;;;;;;;5.97;5.45;;;;;;;26.40;51.65;99438.22;5032349;28;20436;-86
2023/06/18 10:21:38;;;;;;;5.97;5.25;;;;;;;26.28;51.58;99440.47;5048682;28;20029;-86
2023/06/18 10:24:17;;;;;;;6.22;5.72;;;;;;;26.34;51.53;99426.41;5048895;28;20124;-86
2023/06/18 10:26:42;;;;;;;6.28;5.78;;;;;;;26.37;51.46;99432.19;5049093;28;20415;-86
2023/06/18 10:29:12;;;;;;;6.07;5.57;;;;;;;26.44;51.01;99435.03;5048776;28;20171;-86
2023/06/18 10:31:37;;;;;;;5.63;5.10;;;;;;;26.73;50.99;99441.47;5048363;28;20498;-84
2023/06/18 10:34:04;;;;;;;6.35;5.53;;;;;;;26.97;51.53;99438.59;5049318;28;20186;-94
2023/06/18 10:36:29;;;;;;;6.18;5.57;;;;;;;26.95;51.00;99421.06;5052239;28;20033;-84
2023/06/18 10:38:57;;;;;;;5.50;5.00;;;;;;;27.01;50.37;99439.88;5050113;28;20497;-85
2023/06/18 10:41:22;;;;;;;5.82;5.22;;;;;;;26.77;50.34;99426.75;5033645;28;20052;-91
2023/06/18 10:43:52;;;;;;;5.70;5.20;;;;;;;26.41;50.22;99392.63;5033634;28;20386;-91
2023/06/18 10:46:18;;;;;;;5.18;4.70;;;;;;;26.29;50.69;99396.72;5052072;28;20548;-90
2023/06/18 10:49:13;;;;;;;5.63;5.13;;;;;;;26.45;50.64;99426.00;5052367;28;20082;-89
2023/06/18 10:51:38;;;;;;;5.63;5.13;;;;;;;26.29;51.17;99418.09;5052133;28;20021;-94
2023/06/18 10:54:22;;;;;;;5.28;4.80;;;;;;;26.33;51.52;99420.22;5052279;28;20168;-88
2023/06/18 10:56:54;;;;;;;5.30;4.90;;;;;;;26.43;51.93;99425.34;5052023;28;20101;-90
2023/06/18 10:59:52;;;;;;;5.55;5.10;;;;;;;26.49;52.52;99432.66;5051780;28;20419;-90
2023/06/18 11:02:32;;;;;;;5.60;5.10;;;;;;;26.66;52.55;99417.31;5011911;28;20095;-90
2023/06/18 11:04:57;;;;;;;5.82;5.38;;;;;;;26.84;51.42;99417.84;5012319;28;20050;-90
2023/06/18 11:07:27;;;;;;;6.25;5.65;;;;;;;26.84;51.61;99408.97;4995345;28;20042;-88
2023/06/18 11:09:58;;;;;;;5.40;5.00;;;;;;;26.96;51.32;99412.84;4995839;28;20129;-90
2023/06/18 11:12:25;;;;;;;5.28;4.85;;;;;;;26.94;49.88;99398.03;4995578;28;20065;-90
2023/06/18 11:15:18;;;;;;;6.10;5.60;;;;;;;26.85;50.63;99410.66;5012074;28;20425;-90
2023/06/18 11:17:44;;;;;;;5.53;5.03;;;;;;;26.88;50.59;99418.28;4953568;29;20483;-87
2023/06/18 11:20:13;;;;;;;6.15;5.55;;;;;;;26.84;50.43;99401.81;4953624;28;20076;-90
2023/06/18 11:22:40;;;;;;;6.18;5.45;;;;;;;26.73;50.83;99385.38;4953263;28;20039;-92